Glenwood, Arkansas
Current Conditions -  °F | °C
As of 1:53 AM on Friday 31 Oct 2014 (Local Time) from KMWT Reporting Station
Clear Clear  
Wind Chill: 47°   Ceiling: Unl
Heat Index: 49°   Visibility: 10mi
Dew Point: 46°   Wind: 5mph
Humidity: 90%   Direction: 300°WNW
Pressure: 30.07"   Gusts: NA
Location:  34.33°N, 93.55°W
Report Text: KMWT 310653Z AUTO 30004KT 10SM CLR 09/08 A3007 RMK AO2 SLP179 T00940078
Loading
Personal Weather Stations






























Interactive Weather Map
Tropical Storm Tracking
New forecast layout! Learn more

10-Day Weather Forecast

Advertisements
Track Severe Weather on mobile